createdAt,value
2022-11-19T00:02:18.151Z,77.46
2022-11-19T00:04:44.768Z,77.49
2022-11-19T00:07:11.326Z,77.74
2022-11-19T00:09:38.030Z,77.87
2022-11-19T00:12:23.413Z,77.73
2022-11-19T00:14:49.949Z,78.07
2022-11-19T00:17:16.504Z,77.86
2022-11-19T00:19:42.983Z,78.08
2022-11-19T00:22:09.577Z,78.22
2022-11-19T00:24:36.060Z,78.21
2022-11-19T00:27:02.602Z,78.18
2022-11-19T00:29:29.310Z,78.38
2022-11-19T00:31:56.181Z,78.03
2022-11-19T00:34:23.152Z,77.99
2022-11-19T00:36:50.722Z,77.91
2022-11-19T00:39:17.852Z,77.62
2022-11-19T00:41:44.589Z,77.66
2022-11-19T00:44:11.185Z,77.79
2022-11-19T00:46:37.953Z,77.21
2022-11-19T00:49:04.702Z,77.54
2022-11-19T00:51:31.216Z,77.66
2022-11-19T00:53:57.797Z,77.54
2022-11-19T00:56:25.074Z,77.77
2022-11-19T00:58:51.741Z,77.96
2022-11-19T01:01:19.615Z,77.72
2022-11-19T01:03:46.348Z,77.92
2022-11-19T01:06:16.468Z,78.21
2022-11-19T01:08:45.909Z,78.13
2022-11-19T01:11:16.790Z,77.74
2022-11-19T01:13:44.017Z,77.86
2022-11-19T01:16:13.756Z,77.83
2022-11-19T01:18:40.533Z,77.60
2022-11-19T01:21:08.386Z,77.88
2022-11-19T01:23:35.908Z,77.59
2022-11-19T01:26:02.666Z,77.65
2022-11-19T01:28:29.524Z,77.79
2022-11-19T01:30:56.091Z,78.05
2022-11-19T01:33:22.763Z,77.80
2022-11-19T01:35:56.307Z,77.74
2022-11-19T01:38:22.838Z,77.77
2022-11-19T01:40:49.331Z,77.65
2022-11-19T01:43:15.992Z,78.27
2022-11-19T01:45:48.902Z,77.78
2022-11-19T01:48:20.155Z,77.90
2022-11-19T01:50:50.229Z,78.15
2022-11-19T01:53:17.379Z,78.53
2022-11-19T01:55:43.921Z,78.08
2022-11-19T01:58:11.167Z,78.08
2022-11-19T02:00:37.747Z,77.74
2022-11-19T02:03:04.236Z,78.11
2022-11-19T02:05:31.205Z,78.05
2022-11-19T02:07:58.475Z,78.83
2022-11-19T02:10:27.427Z,78.56
2022-11-19T02:13:03.029Z,78.31
2022-11-19T02:15:44.892Z,77.82
2022-11-19T02:18:17.890Z,77.26
2022-11-19T02:20:45.552Z,77.67
2022-11-19T02:26:26.964Z,78.01
2022-11-19T02:28:54.208Z,77.50
2022-11-19T02:31:20.747Z,77.39
2022-11-19T02:33:55.480Z,77.80
2022-11-19T02:36:28.836Z,77.25
2022-11-19T02:38:56.678Z,76.84
2022-11-19T02:41:41.940Z,77.31
2022-11-19T02:44:46.287Z,77.87
2022-11-19T02:47:14.854Z,78.23
2022-11-19T02:49:42.652Z,78.08
2022-11-19T02:52:09.344Z,78.53
2022-11-19T02:54:35.879Z,78.72
2022-11-19T02:57:03.453Z,78.88
2022-11-19T02:59:55.223Z,78.78
2022-11-19T03:02:40.252Z,78.76
2022-11-19T03:05:07.577Z,78.73
2022-11-19T03:07:34.608Z,78.57
2022-11-19T03:10:02.292Z,78.36
2022-11-19T03:12:39.729Z,78.60
2022-11-19T03:15:27.709Z,78.34
2022-11-19T03:17:54.340Z,78.26
2022-11-19T03:20:23.712Z,78.33
2022-11-19T03:22:54.653Z,78.54
2022-11-19T03:25:35.178Z,78.32
2022-11-19T03:28:03.007Z,78.18
2022-11-19T03:30:29.851Z,77.30
2022-11-19T03:33:00.027Z,77.02
2022-11-19T03:35:28.035Z,76.74
2022-11-19T03:37:54.571Z,76.70
2022-11-19T03:40:21.208Z,77.08
2022-11-19T03:42:48.259Z,77.01
2022-11-19T03:45:19.063Z,77.06
2022-11-19T03:47:45.661Z,77.10
2022-11-19T03:50:17.606Z,76.87
2022-11-19T03:52:44.219Z,76.79
2022-11-19T03:55:10.715Z,77.04
2022-11-19T03:57:37.312Z,77.01
2022-11-19T04:00:04.826Z,76.61
2022-11-19T04:02:40.362Z,77.02
2022-11-19T04:05:07.106Z,77.17
2022-11-19T04:07:33.718Z,76.89
2022-11-19T04:10:00.399Z,77.19
2022-11-19T04:12:27.055Z,77.01
2022-11-19T04:14:54.187Z,77.66
2022-11-19T04:17:21.219Z,77.96
2022-11-19T04:19:48.284Z,77.66
2022-11-19T04:22:14.853Z,77.70
2022-11-19T04:24:41.398Z,77.67
2022-11-19T04:27:07.904Z,77.65
2022-11-19T04:29:34.507Z,77.24
2022-11-19T04:32:01.067Z,77.47
2022-11-19T04:34:27.602Z,77.52
2022-11-19T04:36:54.117Z,77.68
2022-11-19T04:39:21.045Z,77.56
2022-11-19T04:41:47.847Z,77.92
2022-11-19T04:44:14.358Z,77.47
2022-11-19T04:46:40.852Z,77.36
2022-11-19T04:49:07.462Z,77.20
2022-11-19T04:51:33.971Z,77.19
2022-11-19T04:54:00.587Z,76.96
2022-11-19T04:56:27.134Z,76.79
2022-11-19T04:58:53.705Z,76.72
2022-11-19T05:01:21.072Z,76.70
2022-11-19T05:03:48.527Z,77.19
2022-11-19T05:06:15.804Z,77.50
2022-11-19T05:08:42.637Z,77.08
2022-11-19T05:11:09.121Z,77.05
2022-11-19T05:13:35.731Z,77.17
2022-11-19T05:16:02.330Z,77.65
2022-11-19T05:18:29.250Z,78.05
2022-11-19T05:20:55.872Z,78.51
2022-11-19T05:23:22.518Z,78.42
2022-11-19T05:25:49.084Z,78.60
2022-11-19T05:28:17.254Z,78.46
2022-11-19T05:30:45.818Z,78.16
2022-11-19T05:33:12.373Z,77.93
2022-11-19T05:35:38.928Z,77.39
2022-11-19T05:38:06.587Z,77.35
2022-11-19T05:40:33.112Z,77.82
2022-11-19T05:43:03.599Z,78.15
2022-11-19T05:45:30.239Z,78.45
2022-11-19T05:47:56.919Z,78.43
2022-11-19T05:50:23.486Z,78.44
2022-11-19T05:52:50.055Z,78.43
2022-11-19T05:55:16.985Z,78.42
2022-11-19T05:57:43.526Z,78.14
2022-11-19T06:00:10.709Z,77.94
2022-11-19T06:02:40.226Z,78.22
2022-11-19T06:05:06.936Z,77.74
2022-11-19T06:07:33.440Z,77.42
2022-11-19T06:10:00.028Z,77.48
2022-11-19T06:12:26.612Z,76.99
2022-11-19T06:14:53.342Z,77.21
2022-11-19T06:17:20.113Z,77.00
2022-11-19T06:19:47.208Z,77.00
2022-11-19T06:22:13.748Z,77.26
2022-11-19T06:24:40.329Z,77.26
2022-11-19T06:27:07.523Z,77.50
2022-11-19T06:29:34.091Z,77.52
2022-11-19T06:32:00.595Z,77.21
2022-11-19T06:34:48.747Z,77.75
2022-11-19T06:37:22.023Z,77.53
2022-11-19T06:39:49.842Z,77.61
2022-11-19T06:42:40.679Z,78.06
2022-11-19T06:45:12.857Z,77.63
2022-11-19T06:48:06.331Z,77.69
2022-11-19T06:50:37.630Z,77.49
2022-11-19T06:53:18.051Z,77.53
2022-11-19T06:56:10.035Z,77.54
2022-11-19T06:58:45.919Z,77.88
2022-11-19T07:01:35.343Z,77.68
2022-11-19T07:06:48.949Z,77.59
2022-11-19T07:09:15.555Z,78.20
2022-11-19T07:11:42.150Z,78.13
2022-11-19T07:14:08.796Z,78.18
2022-11-19T07:16:36.068Z,78.22
2022-11-19T07:19:03.831Z,78.08
2022-11-19T07:21:30.514Z,77.87
2022-11-19T07:23:57.478Z,77.72
2022-11-19T07:26:24.145Z,78.16
2022-11-19T07:28:50.855Z,78.26
2022-11-19T07:31:17.587Z,78.03
2022-11-19T07:33:44.228Z,78.53
2022-11-19T07:36:18.137Z,78.13
2022-11-19T07:38:45.554Z,77.82
2022-11-19T07:41:31.497Z,77.70
2022-11-19T07:44:33.944Z,77.49
2022-11-19T07:47:22.070Z,77.49
2022-11-19T07:49:49.521Z,77.54
2022-11-19T07:55:08.045Z,78.30
2022-11-19T07:57:34.892Z,78.77
2022-11-19T08:00:01.632Z,78.84
2022-11-19T08:02:28.251Z,78.88
2022-11-19T08:04:54.893Z,78.87
2022-11-19T08:07:21.735Z,78.55
2022-11-19T08:09:50.463Z,78.57
2022-11-19T08:12:17.165Z,78.45
2022-11-19T08:14:43.662Z,78.72
2022-11-19T08:17:28.934Z,78.44
2022-11-19T08:22:22.001Z,77.97
2022-11-19T08:24:48.818Z,77.96
2022-11-19T08:27:15.683Z,78.05
2022-11-19T08:29:42.691Z,78.09
2022-11-19T08:32:09.296Z,77.91
2022-11-19T08:34:35.902Z,78.15
2022-11-19T08:37:02.816Z,77.69
2022-11-19T08:39:29.473Z,77.76
2022-11-19T08:42:14.711Z,77.96
2022-11-19T08:44:41.254Z,77.86
2022-11-19T08:47:07.960Z,77.96
2022-11-19T08:49:34.516Z,78.21
2022-11-19T08:52:01.043Z,78.29
2022-11-19T08:54:27.668Z,77.87
2022-11-19T08:56:54.432Z,78.08
2022-11-19T08:59:22.036Z,77.60
2022-11-19T09:01:49.910Z,77.45
2022-11-19T09:04:16.587Z,77.82
2022-11-19T09:06:43.269Z,77.79
2022-11-19T09:09:10.165Z,77.28
2022-11-19T09:11:41.341Z,76.91
2022-11-19T09:14:09.326Z,76.60
2022-11-19T09:16:36.018Z,76.56
2022-11-19T09:19:02.778Z,76.36
2022-11-19T09:21:29.334Z,76.30
2022-11-19T09:23:55.957Z,76.20
2022-11-19T09:26:22.510Z,75.92
2022-11-19T09:28:49.607Z,75.84
2022-11-19T09:31:17.549Z,75.45
2022-11-19T09:33:45.817Z,75.08
2022-11-19T09:36:12.377Z,74.96
2022-11-19T09:38:40.257Z,75.01
2022-11-19T09:41:33.524Z,75.00
2022-11-19T09:44:26.396Z,75.08
2022-11-19T09:46:55.732Z,75.23
2022-11-19T09:49:24.772Z,75.08
2022-11-19T09:51:53.224Z,74.99
2022-11-19T09:54:21.044Z,74.79
2022-11-19T09:56:47.992Z,75.01
2022-11-19T09:59:33.808Z,75.30
2022-11-19T10:02:00.358Z,75.67
2022-11-19T10:04:28.827Z,75.20
2022-11-19T10:07:06.710Z,75.55
2022-11-19T10:09:33.256Z,74.96
2022-11-19T10:12:19.408Z,75.17
2022-11-19T10:15:12.051Z,75.40
2022-11-19T10:17:56.989Z,75.87
2022-11-19T10:20:32.795Z,75.02
2022-11-19T10:23:03.745Z,75.11
2022-11-19T10:25:42.428Z,75.46
2022-11-19T10:28:13.968Z,75.47
2022-11-19T10:30:41.025Z,76.11
2022-11-19T10:33:19.669Z,75.65
2022-11-19T10:35:54.420Z,75.80
2022-11-19T10:38:28.685Z,75.46
2022-11-19T10:41:05.140Z,75.52
2022-11-19T10:43:38.836Z,75.05
2022-11-19T10:46:06.239Z,75.62
2022-11-19T10:48:37.929Z,75.45
2022-11-19T10:51:09.926Z,75.07
2022-11-19T10:53:36.947Z,75.70
2022-11-19T10:56:04.817Z,75.93
2022-11-19T10:58:39.645Z,75.13
2022-11-19T11:01:18.319Z,75.31
2022-11-19T11:04:17.626Z,74.99
2022-11-19T11:07:04.956Z,75.16
2022-11-19T11:09:40.984Z,75.41
2022-11-19T11:12:30.392Z,75.18
2022-11-19T11:14:59.956Z,75.32
2022-11-19T11:17:31.067Z,75.29
2022-11-19T11:20:03.222Z,75.09
2022-11-19T11:22:30.725Z,75.05
2022-11-19T11:25:04.243Z,74.52
2022-11-19T11:27:34.607Z,75.04
2022-11-19T11:30:19.496Z,74.40
2022-11-19T11:32:47.501Z,74.69
2022-11-19T11:35:34.002Z,75.13
2022-11-19T11:38:00.927Z,74.76
2022-11-19T11:40:27.549Z,74.44
2022-11-19T11:42:54.127Z,75.27
2022-11-19T11:45:21.882Z,74.66
2022-11-19T11:47:48.395Z,74.37
2022-11-19T11:50:15.691Z,74.57
2022-11-19T11:52:44.253Z,74.49
2022-11-19T11:55:14.898Z,74.12
2022-11-19T11:57:54.931Z,74.44
2022-11-19T12:00:24.554Z,74.19
2022-11-19T12:03:01.115Z,74.71
2022-11-19T12:05:28.487Z,74.73
2022-11-19T12:07:58.361Z,74.82
2022-11-19T12:10:34.018Z,75.37
2022-11-19T12:13:02.655Z,75.35
2022-11-19T12:15:32.206Z,75.19
2022-11-19T12:18:17.505Z,75.36
2022-11-19T12:20:44.139Z,75.92
2022-11-19T12:23:25.764Z,75.95
2022-11-19T12:26:13.088Z,76.30
2022-11-19T12:28:48.705Z,76.47
2022-11-19T12:31:20.985Z,76.42
2022-11-19T12:33:47.792Z,76.45
2022-11-19T12:36:19.241Z,76.50
2022-11-19T12:38:45.989Z,76.69
2022-11-19T12:41:31.741Z,76.72
2022-11-19T12:43:58.382Z,76.81
2022-11-19T12:46:32.397Z,76.25
2022-11-19T12:49:18.050Z,76.14
2022-11-19T12:51:52.310Z,76.30
2022-11-19T12:54:28.913Z,75.84
2022-11-19T12:56:56.955Z,76.35
2022-11-19T12:59:38.854Z,76.59
2022-11-19T13:02:08.140Z,76.57
2022-11-19T13:04:37.179Z,76.61
2022-11-19T13:07:04.886Z,76.45
2022-11-19T13:09:44.769Z,76.37
2022-11-19T13:12:12.626Z,76.55
2022-11-19T13:14:49.506Z,76.39
2022-11-19T13:17:26.750Z,76.48
2022-11-19T13:20:04.865Z,76.80
2022-11-19T13:22:33.312Z,76.49
2022-11-19T13:25:01.287Z,76.61
2022-11-19T13:27:28.348Z,76.63
2022-11-19T13:29:54.798Z,77.16
2022-11-19T13:32:40.630Z,77.04
2022-11-19T13:35:27.428Z,76.64
2022-11-19T13:37:58.863Z,76.58
2022-11-19T13:40:45.449Z,76.51
2022-11-19T13:43:35.611Z,76.14
2022-11-19T13:46:11.461Z,75.97
2022-11-19T13:48:41.633Z,75.86
2022-11-19T13:51:10.385Z,76.35
2022-11-19T13:53:41.421Z,76.35
2022-11-19T13:56:12.382Z,76.17
2022-11-19T13:58:44.339Z,75.79
2022-11-19T14:01:26.372Z,76.35
2022-11-19T14:03:52.999Z,76.15
2022-11-19T14:06:28.726Z,76.19
2022-11-19T14:09:14.113Z,76.35
2022-11-19T14:11:40.638Z,76.24
2022-11-19T14:14:44.342Z,75.88
2022-11-19T14:17:45.797Z,76.19
2022-11-19T14:20:51.067Z,76.58
2022-11-19T14:23:55.909Z,76.77
2022-11-19T14:26:40.829Z,75.66
2022-11-19T14:29:42.715Z,76.71
2022-11-19T14:32:09.203Z,77.02
2022-11-19T14:34:37.059Z,76.89
2022-11-19T14:37:12.701Z,77.00
2022-11-19T14:39:40.084Z,77.44
2022-11-19T14:42:14.862Z,77.22
2022-11-19T14:44:41.968Z,77.43
2022-11-19T14:47:26.183Z,77.68
2022-11-19T14:49:55.219Z,77.68
2022-11-19T14:52:23.389Z,77.19
2022-11-19T14:54:54.003Z,77.04
2022-11-19T14:57:25.408Z,77.08
2022-11-19T14:59:52.964Z,76.69
2022-11-19T15:02:39.619Z,76.39
2022-11-19T15:05:14.774Z,76.42
2022-11-19T15:07:55.994Z,76.43
2022-11-19T15:10:27.160Z,77.04
2022-11-19T15:13:12.802Z,76.73
2022-11-19T15:15:42.808Z,76.39
2022-11-19T15:18:23.271Z,76.70
2022-11-19T15:20:59.079Z,76.96
2022-11-19T15:23:34.713Z,77.22
2022-11-19T15:26:06.927Z,76.90
2022-11-19T15:28:52.510Z,77.01
2022-11-19T15:31:38.603Z,77.00
2022-11-19T15:34:07.151Z,77.92
2022-11-19T15:36:39.735Z,77.70
2022-11-19T15:39:17.050Z,77.82
2022-11-19T15:42:00.684Z,77.94
2022-11-19T15:44:36.663Z,77.65
2022-11-19T15:47:14.405Z,77.76
2022-11-19T15:49:44.311Z,77.97
2022-11-19T15:52:17.587Z,77.74
2022-11-19T15:54:44.811Z,77.54
2022-11-19T15:57:17.373Z,78.11
2022-11-19T15:59:57.241Z,77.91
2022-11-19T16:04:57.379Z,78.34
2022-11-19T16:07:25.319Z,77.56
2022-11-19T16:09:52.276Z,77.81
2022-11-19T16:12:39.006Z,77.56
2022-11-19T16:15:34.954Z,77.47
2022-11-19T16:18:01.510Z,77.50
2022-11-19T16:20:28.063Z,77.42
2022-11-19T16:22:54.587Z,77.24
2022-11-19T16:25:40.021Z,77.23
2022-11-19T16:28:27.712Z,77.09
2022-11-19T16:30:54.985Z,77.40
2022-11-19T16:33:22.568Z,77.40
2022-11-19T16:35:52.935Z,77.21
2022-11-19T16:38:29.227Z,77.80
2022-11-19T16:41:14.586Z,77.04
2022-11-19T16:43:41.880Z,77.09
2022-11-19T16:46:08.408Z,77.55
2022-11-19T16:48:50.635Z,77.20
2022-11-19T16:51:26.290Z,77.18
2022-11-19T16:53:52.896Z,77.31
2022-11-19T16:56:19.631Z,77.69
2022-11-19T16:58:46.327Z,77.40
2022-11-19T17:01:12.927Z,77.55
2022-11-19T17:03:40.825Z,77.46
2022-11-19T17:06:08.965Z,77.89
2022-11-19T17:08:39.481Z,77.42
2022-11-19T17:11:34.374Z,77.09
2022-11-19T17:14:04.986Z,77.59
2022-11-19T17:16:31.511Z,77.39
2022-11-19T17:18:58.134Z,77.11
2022-11-19T17:21:28.145Z,77.55
2022-11-19T17:23:54.918Z,77.45
2022-11-19T17:26:27.291Z,77.71
2022-11-19T17:28:57.145Z,76.55
2022-11-19T17:31:26.243Z,76.42
2022-11-19T17:33:55.907Z,75.75
2022-11-19T17:36:23.118Z,76.37
2022-11-19T17:41:43.160Z,77.33
2022-11-19T17:44:44.799Z,76.93
2022-11-19T17:50:23.809Z,77.03
2022-11-19T17:52:50.557Z,76.62
2022-11-19T17:55:18.292Z,76.60
2022-11-19T17:57:44.945Z,76.59
2022-11-19T18:00:11.974Z,76.59
2022-11-19T18:02:38.568Z,76.39
2022-11-19T18:05:16.396Z,76.52
2022-11-19T18:07:43.576Z,76.48
2022-11-19T18:10:10.206Z,76.86
2022-11-19T18:12:36.949Z,77.30
2022-11-19T18:15:03.767Z,77.34
2022-11-19T18:17:30.331Z,76.96
2022-11-19T18:19:56.851Z,77.98
2022-11-19T18:22:23.858Z,78.35
2022-11-19T18:24:50.784Z,78.32
2022-11-19T18:27:17.413Z,78.41
2022-11-19T18:29:44.079Z,78.60
2022-11-19T18:32:11.172Z,78.36
2022-11-19T18:34:37.850Z,78.16
2022-11-19T18:37:04.421Z,77.93
2022-11-19T18:39:31.012Z,77.75
2022-11-19T18:41:57.566Z,77.84
2022-11-19T18:44:36.149Z,78.12
2022-11-19T18:47:03.859Z,77.89
2022-11-19T18:49:30.583Z,77.82
2022-11-19T18:51:57.100Z,77.72
2022-11-19T18:54:23.659Z,77.79
2022-11-19T18:56:50.567Z,77.94
2022-11-19T18:59:17.850Z,78.05
2022-11-19T19:01:44.482Z,78.22
2022-11-19T19:04:14.304Z,77.95
2022-11-19T19:06:41.394Z,77.91
2022-11-19T19:09:08.665Z,77.70
2022-11-19T19:11:54.169Z,77.68
2022-11-19T19:14:22.055Z,77.69
2022-11-19T19:16:48.675Z,77.72
2022-11-19T19:19:17.287Z,77.97
2022-11-19T19:21:43.995Z,78.05
2022-11-19T19:24:11.453Z,77.87
2022-11-19T19:26:39.485Z,78.22
2022-11-19T19:29:06.502Z,77.42
2022-11-19T19:31:33.556Z,77.64
2022-11-19T19:34:01.328Z,77.55
2022-11-19T19:36:28.137Z,77.13
2022-11-19T19:38:54.707Z,78.15
2022-11-19T19:41:25.524Z,78.75
2022-11-19T19:43:52.779Z,77.99
2022-11-19T19:46:20.151Z,77.87
2022-11-19T19:48:47.560Z,77.70
2022-11-19T19:51:14.850Z,77.92
2022-11-19T19:53:45.504Z,77.75
2022-11-19T19:56:13.051Z,77.69
2022-11-19T19:58:39.956Z,77.75
2022-11-19T20:01:10.705Z,77.51
2022-11-19T20:03:37.451Z,78.16
2022-11-19T20:06:04.969Z,78.34
2022-11-19T20:08:31.640Z,77.52
2022-11-19T20:11:06.675Z,77.42
2022-11-19T20:13:33.644Z,77.51
2022-11-19T20:16:04.390Z,77.13
2022-11-19T20:18:32.227Z,77.14
2022-11-19T20:21:00.269Z,77.07
2022-11-19T20:23:29.798Z,77.08
2022-11-19T20:26:04.117Z,77.11
2022-11-19T20:28:30.781Z,77.19
2022-11-19T20:31:04.185Z,77.83
2022-11-19T20:33:31.531Z,77.46
2022-11-19T20:35:58.236Z,77.77
2022-11-19T20:38:25.002Z,77.88
2022-11-19T20:41:01.702Z,77.60
2022-11-19T20:43:52.590Z,77.41
2022-11-19T20:46:20.261Z,77.67
2022-11-19T20:48:47.426Z,77.65
2022-11-19T20:51:14.257Z,78.06
2022-11-19T20:53:40.848Z,77.95
2022-11-19T20:56:08.137Z,78.16
2022-11-19T20:58:35.461Z,78.17
2022-11-19T21:01:34.456Z,78.51
2022-11-19T21:04:46.803Z,77.75
2022-11-19T21:13:08.066Z,78.51
2022-11-19T21:15:36.154Z,77.64
2022-11-19T21:18:02.890Z,77.59
2022-11-19T21:20:29.641Z,77.81
2022-11-19T21:22:56.568Z,77.51
2022-11-19T21:25:23.090Z,77.15
2022-11-19T21:28:02.846Z,77.60
2022-11-19T21:33:37.923Z,77.59
2022-11-19T21:36:04.950Z,77.98
2022-11-19T21:38:31.516Z,77.41
2022-11-19T21:40:58.224Z,77.89
2022-11-19T21:43:25.515Z,78.15
2022-11-19T21:45:54.449Z,77.50
2022-11-19T21:48:21.627Z,77.49
2022-11-19T21:51:14.530Z,77.32
2022-11-19T22:03:00.963Z,77.20
2022-11-19T22:05:27.958Z,77.75
2022-11-19T22:07:54.504Z,77.10
2022-11-19T22:10:21.240Z,76.17
2022-11-19T22:12:48.754Z,76.55
2022-11-19T22:15:15.311Z,76.85
2022-11-19T22:17:41.891Z,76.93
2022-11-19T22:20:08.554Z,76.99
2022-11-19T22:22:35.119Z,77.14
2022-11-19T22:25:02.070Z,77.29
2022-11-19T22:27:28.955Z,77.47
2022-11-19T22:29:56.691Z,77.26
2022-11-19T22:32:23.459Z,76.69
2022-11-19T22:38:11.231Z,76.65
2022-11-19T23:02:52.967Z,77.04
2022-11-19T23:08:15.176Z,77.00
2022-11-19T23:10:43.747Z,77.26
2022-11-19T23:13:33.052Z,77.34
2022-11-19T23:16:05.820Z,77.55
2022-11-19T23:21:45.150Z,76.99
2022-11-19T23:24:13.147Z,76.82
2022-11-19T23:26:59.676Z,77.36
2022-11-19T23:29:29.106Z,77.69
2022-11-19T23:31:58.342Z,78.28
2022-11-19T23:34:41.018Z,78.25
2022-11-19T23:37:10.839Z,78.25
2022-11-19T23:39:50.456Z,78.54
2022-11-19T23:42:39.565Z,78.63
2022-11-19T23:45:06.333Z,78.54
2022-11-19T23:47:36.613Z,78.89
2022-11-19T23:50:03.511Z,79.08
2022-11-19T23:52:30.017Z,79.48
2022-11-19T23:54:56.640Z,79.00
2022-11-19T23:57:23.219Z,78.58
2022-11-19T23:59:49.770Z,78.41
